Domov               UVHVVR             MKGP            O straneh              
ZDRAVSTVENO VARSTVO RASTLIN
  MREŽA AGROMET. POSTAJ
 ► PROGNOSTIČNA OBVESTILA
AGROMETEOROLOŠKI PODATKI -
ARSO
OBVLADOVANJE TVEGANJ ZARADI
NEUGODNIH VREMENSKIH RAZMER
  ► NARAVNE NESREČE
  ► SUŠA/MOČA
  ► NAMAKANJE
  ► ŽLED (gozdarstvo)
KARTOGRAFSKI PRIKAZI
SPLETNE POVEZAVE
PROJEKTI IN PUBLIKACIJE

AGROMETEOROLOŠKA MREŽA: VREMENSKE POSTAJE IN FENOLOŠKA OPAZOVANJA

Pregled podatkov za lokacijo Virštanj, meteorološka postaja 39749

Pregled senzorjev na lokaciji

ID Ime Zadnja
vrednost
Datum
zadnje
spremembe
Tip
senzorja
3124 Temperatura 2 m (°C) 5,71 °C 14.12.2017 06:30 50YA
3125 Relativna vlaga 2 m (% RH) 75,95 % RH 14.12.2017 06:30 50YA
3127 Padavine (mm) 0 mm 14.12.2017 06:30 Rain-O-Matic

Pregled podatkov zadnjih 24 ur

Zap.
št.
Datum in čas Virštanj
Padavine Relativna
vlaga
2
m
Temperatura
2
m
0 14.12.2017 06:30 0 75,95 5,71
1 14.12.2017 06:00 0 79,61 5,32
2 14.12.2017 05:30 0 79,51 5,42
3 14.12.2017 05:00 0 80,56 5,23
4 14.12.2017 04:30 0 81,59 5,03
5 14.12.2017 04:00 0 82,44 4,84
6 14.12.2017 03:30 0 83,15 4,62
7 14.12.2017 03:00 0 82,91 4,59
8 14.12.2017 02:30 0 83,25 4,3
9 14.12.2017 02:00 0 84,69 3,93
10 14.12.2017 01:30 0 85,96 3,57
11 14.12.2017 01:00 0 94,9 1,71
12 14.12.2017 00:30 0 97,53 0,32
13 14.12.2017 00:00 0 98,29 0,42
14 13.12.2017 23:30 0 97,05 0,39
15 13.12.2017 23:00 0 96,31 0,63
16 13.12.2017 22:30 0 95,95 0,66
17 13.12.2017 22:00 0 97,7 0,49
18 13.12.2017 21:30 0 97,56 0,63
19 13.12.2017 21:00 0 97,26 0,83
20 13.12.2017 20:30 0 97,17 1,05
21 13.12.2017 20:00 0 96,53 1,17
22 13.12.2017 19:30 0 95,14 1,29
23 13.12.2017 19:00 0 94,41 1,29
24 13.12.2017 18:30 0 94,38 1,15
25 13.12.2017 18:00 0 92,63 1,29
26 13.12.2017 17:30 0 94,24 1,12
27 13.12.2017 17:00 0 95,46 1,32
28 13.12.2017 16:30 0 96,09 2,03
29 13.12.2017 16:00 0 95,68 2,12
30 13.12.2017 15:30 0 94,36 2,34
31 13.12.2017 15:00 0 93,33 2,59
32 13.12.2017 14:30 0 94,51 2,47
33 13.12.2017 14:00 0 93,14 2,39
34 13.12.2017 13:30 0 92,45 2,88
35 13.12.2017 13:00 0 93,85 2,69
36 13.12.2017 12:30 0 95,24 2,54
37 13.12.2017 12:00 0,2 98,05 2,47
38 13.12.2017 11:30 0 99,78 1,71
39 13.12.2017 11:00 0,2 99,93 1,37
40 13.12.2017 10:30 0,4 99,93 1
41 13.12.2017 10:00 0,4 99,93 0,9
42 13.12.2017 09:30 0,2 99,73 0,73
43 13.12.2017 09:00 0,4 98,12 1,03
44 13.12.2017 08:30 0,2 99,32 1,05
45 13.12.2017 08:00 0,2 99,93 0,71
46 13.12.2017 07:30 0 99,93 0,49
© 2011 Ministrstvo za kmetijstvo, gozdarstvo in prehrano. Vse pravice pridržane.